Time;durP1;ratioP1;P1;durP2;ratioP2;P2;SDS_P1;SDS_P2;PMS_P1;PMS_P2;Temp;Humidity;BMP_temperature;BMP_pressure;BME280_temperature;BME280_humidity;BME280_pressure;Samples;Min_cycle;Max_cycle;Signal;HPM_P1;HPM_P2
2022/03/31 00:03:15;;;;;;;3.70;2.10;;;0.30;1.00;;;;;;5082343;28;20203;-86
2022/03/31 00:05:44;;;;;;;2.50;1.60;;;0.30;1.00;;;;;;5074473;28;20202;-87
2022/03/31 00:08:13;;;;;;;3.80;2.17;;;0.30;1.00;;;;;;5074448;28;20192;-86
2022/03/31 00:10:42;;;;;;;3.00;1.90;;;0.20;1.00;;;;;;5071954;28;20223;-87
2022/03/31 00:13:11;;;;;;;3.73;2.00;;;0.20;1.00;;;;;;5061324;28;20188;-87
2022/03/31 00:15:40;;;;;;;2.83;2.20;;;0.20;1.00;;;;;;5074143;28;20216;-86
2022/03/31 00:18:09;;;;;;;4.90;2.27;;;0.10;1.00;;;;;;5073867;28;20192;-85
2022/03/31 00:34:05;;;;;;;3.93;2.23;;;-0.10;1.00;;;;;;5053662;28;20168;-85
2022/03/31 00:36:32;;;;;;;11.37;1.90;;;-0.20;1.00;;;;;;5053712;28;20216;-86
2022/03/31 00:41:45;;;;;;;3.97;2.27;;;-0.30;1.00;;;;;;5064628;28;20250;-86
2022/03/31 00:44:12;;;;;;;3.67;2.37;;;-0.30;1.00;;;;;;5073749;28;20198;-87
2022/03/31 00:46:49;;;;;;;10.50;1.77;;;-0.30;1.00;;;;;;5073952;28;20195;-85
2022/03/31 00:49:18;;;;;;;5.17;2.43;;;-0.30;1.00;;;;;;5073496;28;20270;-85
2022/03/31 00:51:45;;;;;;;3.10;1.87;;;-0.40;1.00;;;;;;5073469;28;20549;-85
2022/03/31 00:54:13;;;;;;;6.00;2.10;;;-0.40;1.00;;;;;;5073662;28;20200;-86
2022/03/31 00:56:42;;;;;;;4.23;2.57;;;-0.40;1.00;;;;;;5073457;28;20308;-86
2022/03/31 00:59:12;;;;;;;2.90;1.67;;;-0.40;1.00;;;;;;5073296;28;20198;-86
2022/03/31 01:01:40;;;;;;;4.27;2.50;;;-0.40;1.00;;;;;;5073333;28;20718;-88
2022/03/31 01:04:08;;;;;;;3.53;2.10;;;-0.50;1.00;;;;;;5072931;28;20198;-87
2022/03/31 01:06:36;;;;;;;3.77;2.20;;;-0.50;1.00;;;;;;5073283;28;20202;-86
2022/03/31 01:09:05;;;;;;;3.90;2.00;;;-0.50;1.00;;;;;;5073004;28;20718;-87
2022/03/31 01:11:33;;;;;;;4.17;2.43;;;-0.50;1.00;;;;;;5063501;28;20189;-87
2022/03/31 01:14:01;;;;;;;3.57;2.40;;;-0.50;1.00;;;;;;5053115;28;20556;-87
2022/03/31 01:16:31;;;;;;;4.83;2.47;;;-0.50;1.00;;;;;;5052650;28;20299;-87
2022/03/31 01:18:58;;;;;;;3.07;2.03;;;-0.60;1.00;;;;;;5056881;28;20184;-87
2022/03/31 01:21:25;;;;;;;2.70;1.90;;;-0.60;1.00;;;;;;5072908;28;20202;-87
2022/03/31 01:23:55;;;;;;;2.97;2.00;;;-0.60;1.00;;;;;;5073058;28;20192;-86
2022/03/31 01:26:23;;;;;;;2.93;1.80;;;-0.60;1.00;;;;;;5072700;28;20183;-85
2022/03/31 01:28:50;;;;;;;3.70;2.40;;;-0.60;1.00;;;;;;5056099;28;20197;-87
2022/03/31 01:31:17;;;;;;;3.80;2.20;;;-0.60;1.00;;;;;;5052395;28;20668;-86
2022/03/31 01:33:44;;;;;;;4.07;2.60;;;-0.60;1.00;;;;;;5052451;28;20661;-88
2022/03/31 01:36:12;;;;;;;2.90;2.10;;;-0.60;1.00;;;;;;5053054;28;20216;-88
2022/03/31 01:38:39;;;;;;;3.93;2.30;;;-0.60;1.00;;;;;;5052028;28;20195;-85
2022/03/31 01:41:07;;;;;;;4.43;1.83;;;-0.60;1.00;;;;;;5052713;28;20188;-86
2022/03/31 01:43:35;;;;;;;3.33;1.83;;;-0.60;11.60;;;;;;5052495;28;20684;-88
2022/03/31 01:46:02;;;;;;;3.83;2.80;;;-0.70;16.50;;;;;;5052726;28;20550;-88
2022/03/31 01:48:30;;;;;;;3.83;2.20;;;-0.60;5.40;;;;;;5067941;28;20195;-86
2022/03/31 01:50:57;;;;;;;4.37;2.40;;;-0.70;13.50;;;;;;5072311;28;20219;-87
2022/03/31 01:53:24;;;;;;;4.57;2.17;;;-0.60;19.60;;;;;;5072718;28;20188;-86
2022/03/31 01:55:51;;;;;;;4.10;2.27;;;-0.70;27.50;;;;;;5072206;28;20196;-88
2022/03/31 01:58:20;;;;;;;3.10;2.37;;;-0.70;18.30;;;;;;5072477;28;20195;-87
2022/03/31 02:00:47;;;;;;;3.27;2.50;;;-0.60;59.80;;;;;;5072281;28;20196;-86
2022/03/31 02:03:14;;;;;;;3.63;2.27;;;-0.60;26.00;;;;;;5072676;28;20208;-86
2022/03/31 02:05:41;;;;;;;4.83;2.67;;;-0.60;48.30;;;;;;5072667;28;20192;-86
2022/03/31 02:08:08;;;;;;;3.30;2.63;;;-0.70;27.90;;;;;;5072651;28;20281;-86
2022/03/31 02:10:36;;;;;;;4.10;2.40;;;-0.60;39.50;;;;;;5072276;28;20219;-86
2022/03/31 02:13:03;;;;;;;3.80;1.90;;;-0.60;40.00;;;;;;5072019;28;20544;-86
2022/03/31 02:15:32;;;;;;;3.67;2.37;;;-0.60;37.60;;;;;;5072479;28;20198;-86
2022/03/31 02:18:01;;;;;;;3.73;2.30;;;-0.60;41.90;;;;;;5071159;28;20223;-85
2022/03/31 02:20:30;;;;;;;3.37;1.67;;;-0.60;37.70;;;;;;5071862;28;20212;-87
2022/03/31 02:23:00;;;;;;;3.90;2.20;;;-0.60;52.60;;;;;;5071942;28;20206;-86
2022/03/31 02:25:27;;;;;;;4.37;2.50;;;-0.70;47.80;;;;;;5071940;28;20192;-85
2022/03/31 02:27:55;;;;;;;3.90;2.47;;;-0.60;53.50;;;;;;5071871;28;20199;-87
2022/03/31 02:30:23;;;;;;;6.43;1.90;;;-0.60;47.00;;;;;;5072273;28;20188;-87
2022/03/31 02:32:52;;;;;;;3.70;2.37;;;-0.70;66.40;;;;;;5072202;28;20188;-87
2022/03/31 02:35:19;;;;;;;4.53;2.67;;;-0.70;52.30;;;;;;5072009;28;20192;-85
2022/03/31 02:37:46;;;;;;;5.13;2.50;;;-0.70;49.60;;;;;;5072099;28;20611;-87
2022/03/31 02:40:13;;;;;;;3.47;1.97;;;-0.70;37.80;;;;;;5071861;28;20203;-85
2022/03/31 02:42:40;;;;;;;6.53;4.37;;;-0.70;42.80;;;;;;5072420;28;20191;-88
2022/03/31 02:45:08;;;;;;;3.70;2.30;;;-0.70;40.20;;;;;;5072023;28;20196;-85
2022/03/31 02:47:36;;;;;;;3.23;2.17;;;-0.70;40.00;;;;;;5061565;28;20303;-85
2022/03/31 02:50:06;;;;;;;5.37;2.53;;;-0.70;43.50;;;;;;5055522;28;20223;-86
2022/03/31 02:55:28;;;;;;;3.37;2.17;;;-0.70;37.30;;;;;;5055540;28;20177;-85
2022/03/31 02:57:56;;;;;;;5.03;2.50;;;-0.80;40.30;;;;;;5055913;28;20224;-85
2022/03/31 03:00:23;;;;;;;3.83;2.57;;;-0.80;42.30;;;;;;5056744;28;20824;-85
2022/03/31 03:02:51;;;;;;;4.03;2.43;;;-0.80;37.50;;;;;;5075078;28;20550;-87
2022/03/31 03:05:19;;;;;;;3.80;2.53;;;-0.80;41.40;;;;;;5075504;28;20589;-87
2022/03/31 03:07:46;;;;;;;4.27;2.20;;;-0.80;47.00;;;;;;5075686;28;20241;-85
2022/03/31 03:10:14;;;;;;;4.60;1.80;;;-0.80;43.30;;;;;;5060211;28;20688;-86
2022/03/31 03:12:42;;;;;;;4.10;2.13;;;-0.90;56.80;;;;;;5056165;28;20267;-86
2022/03/31 03:15:10;;;;;;;4.27;2.20;;;-0.90;46.20;;;;;;5055952;28;20283;-85
2022/03/31 03:17:41;;;;;;;3.57;2.50;;;-0.90;44.00;;;;;;5055037;28;20220;-88
2022/03/31 03:20:11;;;;;;;3.37;2.10;;;-0.90;46.10;;;;;;5055953;28;20204;-86
2022/03/31 03:22:39;;;;;;;4.10;2.40;;;-0.90;47.30;;;;;;5055066;28;20250;-85
2022/03/31 03:25:07;;;;;;;4.13;2.83;;;-1.00;45.90;;;;;;5055354;28;20282;-86
2022/03/31 03:27:34;;;;;;;5.13;2.90;;;-1.00;46.30;;;;;;5055383;28;20283;-88
2022/03/31 03:30:02;;;;;;;3.77;2.53;;;-1.00;53.30;;;;;;5054776;28;20189;-87
2022/03/31 03:32:29;;;;;;;4.40;2.30;;;-1.10;50.20;;;;;;5055040;28;20200;-88
2022/03/31 03:34:56;;;;;;;4.10;1.90;;;-1.10;57.80;;;;;;5055100;28;20254;-87
2022/03/31 03:37:23;;;;;;;3.73;2.17;;;-1.20;62.20;;;;;;5054670;28;20281;-86
2022/03/31 03:39:51;;;;;;;2.83;1.80;;;-1.20;55.70;;;;;;5066195;28;20249;-87
2022/03/31 03:42:19;;;;;;;4.50;2.00;;;-1.20;73.90;;;;;;5067844;28;20201;-86
2022/03/31 03:44:47;;;;;;;3.33;2.37;;;-1.30;64.90;;;;;;5054737;28;20197;-86
2022/03/31 03:47:14;;;;;;;4.03;2.10;;;-1.30;62.30;;;;;;5054847;28;20193;-87
2022/03/31 03:49:41;;;;;;;3.17;1.97;;;-1.30;65.10;;;;;;5055136;28;20258;-87
2022/03/31 03:52:08;;;;;;;2.37;1.57;;;-1.30;66.40;;;;;;5054651;28;20193;-86
2022/03/31 03:54:36;;;;;;;3.90;1.90;;;-1.30;64.60;;;;;;5054632;28;20279;-86
2022/03/31 03:57:05;;;;;;;2.63;1.73;;;-1.30;78.00;;;;;;5054149;28;20220;-88
2022/03/31 03:59:32;;;;;;;3.60;2.20;;;-1.30;87.50;;;;;;5054162;28;20195;-86
2022/03/31 04:02:01;;;;;;;4.27;2.27;;;-1.40;60.30;;;;;;5053769;28;20228;-85
2022/03/31 04:04:29;;;;;;;2.90;2.10;;;-1.40;71.20;;;;;;5054541;28;20201;-85
2022/03/31 04:06:56;;;;;;;4.13;2.40;;;-1.40;60.80;;;;;;5054439;28;20201;-86
2022/03/31 04:09:23;;;;;;;4.93;3.13;;;-1.40;63.80;;;;;;5054583;28;20557;-86
2022/03/31 04:11:51;;;;;;;4.73;2.10;;;-1.40;67.70;;;;;;5054379;28;20707;-85
2022/03/31 04:14:20;;;;;;;6.33;2.43;;;-1.40;69.30;;;;;;5053784;28;20548;-86
2022/03/31 04:16:47;;;;;;;3.83;2.20;;;-1.50;72.10;;;;;;5054166;28;20223;-87
2022/03/31 04:19:14;;;;;;;4.80;2.30;;;-1.50;72.00;;;;;;5073728;28;20191;-85
2022/03/31 04:21:42;;;;;;;4.10;2.40;;;-1.50;80.20;;;;;;5074435;28;20188;-86
2022/03/31 04:24:09;;;;;;;2.77;2.07;;;-1.50;82.90;;;;;;5074496;28;20604;-84
2022/03/31 04:26:36;;;;;;;4.80;2.10;;;-1.60;82.80;;;;;;5074095;28;20245;-86
2022/03/31 04:29:08;;;;;;;3.73;1.97;;;-1.60;80.70;;;;;;5073690;28;20262;-85
2022/03/31 04:31:37;;;;;;;5.40;1.80;;;-1.60;77.00;;;;;;5076492;28;20210;-85
2022/03/31 04:34:04;;;;;;;3.40;1.97;;;-1.70;72.40;;;;;;5073590;28;20656;-85
2022/03/31 04:36:31;;;;;;;3.37;1.80;;;-1.70;62.60;;;;;;5069708;28;20707;-86
2022/03/31 04:38:58;;;;;;;2.67;1.93;;;-1.70;58.40;;;;;;5063754;28;20213;-86
2022/03/31 04:41:29;;;;;;;2.87;1.70;;;-1.70;52.90;;;;;;5070750;28;20195;-84
2022/03/31 04:43:56;;;;;;;4.40;1.97;;;-1.70;50.00;;;;;;5057207;28;20192;-88
2022/03/31 04:46:23;;;;;;;2.53;1.70;;;-1.70;50.20;;;;;;5060969;28;20197;-86
2022/03/31 04:48:51;;;;;;;3.00;1.73;;;-1.70;45.40;;;;;;5058727;28;20580;-85
2022/03/31 04:51:18;;;;;;;4.00;1.70;;;-1.70;40.20;;;;;;5056473;28;20189;-86
2022/03/31 04:53:45;;;;;;;2.57;1.60;;;-1.70;32.20;;;;;;5061898;28;20196;-87
2022/03/31 04:56:14;;;;;;;2.87;1.50;;;-1.70;24.10;;;;;;5069770;28;20207;-86
2022/03/31 04:58:41;;;;;;;5.73;2.00;;;-1.60;16.10;;;;;;5078016;28;20239;-84
2022/03/31 05:01:08;;;;;;;3.43;1.90;;;-1.60;6.70;;;;;;5074664;28;20593;-87
2022/03/31 05:03:35;;;;;;;3.33;1.87;;;-1.50;2.00;;;;;;5074973;28;20209;-87
2022/03/31 05:06:03;;;;;;;3.00;1.73;;;-1.50;1.00;;;;;;5075863;28;20192;-87
2022/03/31 05:08:31;;;;;;;3.37;1.80;;;-1.40;1.00;;;;;;5074030;28;20206;-85
2022/03/31 05:10:58;;;;;;;2.03;1.50;;;-1.40;1.00;;;;;;5056924;28;20324;-86
2022/03/31 05:13:25;;;;;;;5.03;1.83;;;-1.30;1.00;;;;;;5054574;28;20188;-87
2022/03/31 05:15:52;;;;;;;3.20;1.90;;;-1.30;1.00;;;;;;5056082;28;20193;-87
2022/03/31 05:18:20;;;;;;;3.40;1.83;;;-1.30;1.00;;;;;;5057871;28;20263;-89
2022/03/31 05:20:47;;;;;;;4.03;1.60;;;-1.20;1.00;;;;;;5057257;28;20220;-86
2022/03/31 05:23:15;;;;;;;3.67;1.80;;;-1.10;1.00;;;;;;5057628;28;20197;-87
2022/03/31 05:25:43;;;;;;;4.67;1.53;;;-1.00;1.00;;;;;;5058259;28;20200;-84
2022/03/31 05:28:11;;;;;;;3.70;1.70;;;-0.90;1.00;;;;;;5053324;28;20200;-85
2022/03/31 05:30:38;;;;;;;5.63;1.77;;;-0.80;1.00;;;;;;5056229;28;20250;-86
2022/03/31 05:33:07;;;;;;;3.87;2.10;;;-0.50;1.00;;;;;;5055019;28;20283;-86
2022/03/31 05:35:34;;;;;;;5.07;1.83;;;-0.30;1.00;;;;;;5058569;28;20197;-87
2022/03/31 05:38:14;;;;;;;;;;;;;;;;;;;;;
2022/03/31 05:40:56;;;;;;;3.63;2.27;;;0.30;1.00;;;;;;5057718;28;20263;-85
2022/03/31 05:43:23;;;;;;;5.40;2.13;;;0.60;1.00;;;;;;5074387;28;20200;-86
2022/03/31 05:45:51;;;;;;;2.23;1.20;;;0.70;1.00;;;;;;5077749;28;20257;-88
2022/03/31 05:48:18;;;;;;;2.10;1.50;;;1.00;1.00;;;;;;5078000;28;20206;-84
2022/03/31 05:50:45;;;;;;;3.83;2.30;;;1.30;1.00;;;;;;5077346;28;20191;-86
2022/03/31 05:53:13;;;;;;;2.93;1.83;;;1.60;1.00;;;;;;5080513;28;20270;-85
2022/03/31 05:55:43;;;;;;;3.20;1.70;;;1.70;1.00;;;;;;5059727;28;20200;-86
2022/03/31 05:58:12;;;;;;;2.03;1.40;;;1.80;1.00;;;;;;5054601;28;20220;-88
2022/03/31 06:00:39;;;;;;;2.17;1.23;;;2.10;1.00;;;;;;5057119;28;20193;-85
2022/03/31 06:03:06;;;;;;;2.93;1.47;;;2.30;1.00;;;;;;5054736;28;20692;-87
2022/03/31 06:05:33;;;;;;;3.73;2.00;;;2.50;1.00;;;;;;5056511;28;20623;-85
2022/03/31 06:08:01;;;;;;;3.70;2.00;;;2.70;1.00;;;;;;5054030;28;20196;-86
2022/03/31 06:10:28;;;;;;;2.37;1.57;;;2.90;1.00;;;;;;5060047;28;20213;-85
2022/03/31 06:12:57;;;;;;;4.47;1.63;;;3.00;1.00;;;;;;5073315;28;20196;-85
2022/03/31 06:15:26;;;;;;;3.23;1.57;;;3.10;1.00;;;;;;5068974;28;20258;-86
2022/03/31 06:17:53;;;;;;;2.53;1.47;;;3.30;1.00;;;;;;5064132;28;20214;-90
2022/03/31 06:20:20;;;;;;;3.40;1.93;;;3.30;1.00;;;;;;5056208;28;20194;-87
2022/03/31 06:22:47;;;;;;;3.13;1.63;;;3.30;1.00;;;;;;5055071;28;20196;-85
2022/03/31 06:25:18;;;;;;;3.43;1.97;;;3.20;1.00;;;;;;5062933;28;20191;-86
2022/03/31 06:27:47;;;;;;;5.50;2.10;;;3.30;1.00;;;;;;5060406;28;20190;-86
2022/03/31 06:30:14;;;;;;;4.43;2.17;;;3.40;1.00;;;;;;5062530;28;20234;-87
2022/03/31 06:32:43;;;;;;;2.57;1.63;;;3.60;1.00;;;;;;5061074;28;20191;-85
2022/03/31 06:35:14;;;;;;;4.03;1.97;;;3.70;1.00;;;;;;5080564;28;20199;-84
2022/03/31 06:37:44;;;;;;;3.63;2.17;;;4.00;1.00;;;;;;5070380;28;20216;-87
2022/03/31 06:40:13;;;;;;;2.93;2.00;;;4.20;1.00;;;;;;5070581;28;20182;-87
2022/03/31 06:42:41;;;;;;;3.97;2.10;;;4.30;1.00;;;;;;5068839;28;20265;-85
2022/03/31 06:45:12;;;;;;;2.77;2.00;;;4.20;1.00;;;;;;5066700;28;20200;-87
2022/03/31 06:47:40;;;;;;;5.47;2.00;;;4.20;1.00;;;;;;5064613;28;20200;-87
2022/03/31 06:50:10;;;;;;;3.73;2.10;;;4.00;1.00;;;;;;5071438;28;20179;-86
2022/03/31 06:52:38;;;;;;;2.97;1.63;;;4.00;1.00;;;;;;5062651;28;20277;-86
2022/03/31 06:55:06;;;;;;;2.40;1.70;;;3.90;1.00;;;;;;5057923;28;20193;-83
2022/03/31 06:57:33;;;;;;;3.67;1.73;;;4.00;1.00;;;;;;5060216;28;20203;-86
2022/03/31 07:00:00;;;;;;;5.83;2.53;;;4.10;1.00;;;;;;5057751;28;20684;-84
2022/03/31 07:02:27;;;;;;;3.23;2.33;;;4.40;1.00;;;;;;5069271;28;20200;-84
2022/03/31 07:04:54;;;;;;;3.77;1.90;;;4.80;1.00;;;;;;5075207;28;20200;-86
2022/03/31 07:07:24;;;;;;;2.57;1.80;;;4.80;1.00;;;;;;5075011;28;20188;-85
2022/03/31 07:09:52;;;;;;;3.90;2.40;;;4.90;1.00;;;;;;5057463;28;20590;-88
2022/03/31 07:12:19;;;;;;;3.37;2.40;;;5.10;1.00;;;;;;5067693;28;20192;-84
2022/03/31 07:14:46;;;;;;;3.97;2.40;;;5.10;1.00;;;;;;5077470;28;20192;-86
2022/03/31 07:17:13;;;;;;;3.17;2.10;;;5.10;1.00;;;;;;5076164;28;20259;-85
2022/03/31 07:19:40;;;;;;;5.90;4.10;;;4.90;1.00;;;;;;5078931;28;20580;-84
2022/03/31 07:22:07;;;;;;;3.50;2.20;;;4.80;1.00;;;;;;5079992;28;20191;-86
2022/03/31 07:24:36;;;;;;;4.40;2.60;;;4.80;1.00;;;;;;5066007;28;20204;-85
2022/03/31 07:27:04;;;;;;;2.73;1.80;;;5.00;1.00;;;;;;5059157;28;20193;-87
2022/03/31 07:29:36;;;;;;;3.80;2.27;;;5.00;1.00;;;;;;5058265;28;20207;-87
2022/03/31 07:32:03;;;;;;;3.87;2.37;;;5.00;1.00;;;;;;5063244;28;20177;-86
2022/03/31 07:34:30;;;;;;;2.70;2.00;;;5.10;1.00;;;;;;5060699;28;20201;-87
2022/03/31 07:36:59;;;;;;;3.90;2.30;;;5.20;1.00;;;;;;5061051;28;20194;-85
2022/03/31 07:39:27;;;;;;;3.50;2.40;;;5.50;1.00;;;;;;5074095;28;20223;-83
2022/03/31 07:42:06;;;;;;;4.40;2.60;;;5.90;1.00;;;;;;5081990;28;20196;-88
2022/03/31 07:44:39;;;;;;;6.03;2.60;;;6.20;1.00;;;;;;5082190;28;20597;-87
2022/03/31 07:47:18;;;;;;;3.47;2.27;;;6.40;1.00;;;;;;5085264;28;20203;-83
2022/03/31 07:49:46;;;;;;;3.77;2.20;;;6.60;1.00;;;;;;5076089;28;20266;-86
2022/03/31 07:52:14;;;;;;;4.33;2.60;;;6.60;1.00;;;;;;5059502;28;20191;-91
2022/03/31 07:54:50;;;;;;;5.43;2.40;;;6.80;1.00;;;;;;5062460;28;20207;-89
2022/03/31 07:57:43;;;;;;;3.47;2.30;;;6.90;1.00;;;;;;5059762;28;20220;-86
2022/03/31 08:00:15;;;;;;;3.70;2.40;;;6.80;1.00;;;;;;5060561;28;20554;-87
2022/03/31 08:02:43;;;;;;;4.10;2.33;;;6.80;1.00;;;;;;5061149;28;20629;-84
2022/03/31 08:05:11;;;;;;;4.10;2.70;;;6.70;1.00;;;;;;5054130;28;20737;-86
2022/03/31 08:07:41;;;;;;;4.27;2.40;;;6.70;1.00;;;;;;5056731;28;20195;-85
2022/03/31 08:10:23;;;;;;;2.80;1.90;;;6.60;1.00;;;;;;5061512;28;20306;-85
2022/03/31 08:12:52;;;;;;;5.47;3.03;;;6.70;1.00;;;;;;5072121;28;20194;-84
2022/03/31 08:15:20;;;;;;;3.67;2.47;;;7.20;1.00;;;;;;5076640;28;20203;-85
2022/03/31 08:17:48;;;;;;;4.93;2.60;;;7.20;1.00;;;;;;5069807;28;20199;-86
2022/03/31 08:20:16;;;;;;;3.70;2.13;;;7.30;1.00;;;;;;5077320;28;20550;-84
2022/03/31 08:22:45;;;;;;;3.00;2.10;;;7.50;1.00;;;;;;5072403;28;20192;-87
2022/03/31 08:25:13;;;;;;;2.93;2.00;;;7.70;1.00;;;;;;5076519;28;20567;-86
2022/03/31 08:27:41;;;;;;;3.20;2.30;;;8.00;1.00;;;;;;5069240;28;20196;-87
2022/03/31 08:30:13;;;;;;;7.03;2.50;;;8.20;1.00;;;;;;5055408;28;20199;-86
2022/03/31 08:32:43;;;;;;;6.37;2.40;;;8.30;1.00;;;;;;5056474;28;20205;-85
2022/03/31 08:35:11;;;;;;;6.20;2.57;;;8.50;1.00;;;;;;5057345;28;20198;-85
2022/03/31 08:37:39;;;;;;;6.47;2.87;;;8.70;1.00;;;;;;5056473;28;20193;-85
2022/03/31 08:40:11;;;;;;;4.47;2.97;;;8.90;1.00;;;;;;5057190;28;20246;-86
2022/03/31 08:42:38;;;;;;;3.53;2.43;;;9.20;1.00;;;;;;5060177;28;20193;-86
2022/03/31 08:45:08;;;;;;;4.03;2.57;;;9.10;1.00;;;;;;5073509;28;20195;-86
2022/03/31 08:47:38;;;;;;;11.63;8.43;;;9.10;1.00;;;;;;5069077;28;20192;-84
2022/03/31 08:50:06;;;;;;;5.60;2.70;;;9.20;1.00;;;;;;5057591;28;20577;-84
2022/03/31 08:52:33;;;;;;;3.83;2.00;;;8.90;1.00;;;;;;5063802;28;20535;-85
2022/03/31 08:55:00;;;;;;;3.37;1.83;;;8.80;1.00;;;;;;5076322;28;20202;-84
2022/03/31 08:57:43;;;;;;;2.93;1.93;;;8.70;1.00;;;;;;5077476;28;20193;-88
2022/03/31 09:00:13;;;;;;;3.03;2.20;;;8.60;1.00;;;;;;5077936;28;20569;-83
2022/03/31 09:02:53;;;;;;;4.27;1.80;;;8.50;1.00;;;;;;5073182;28;20226;-85
2022/03/31 09:05:23;;;;;;;4.17;2.07;;;8.30;1.00;;;;;;5075538;28;20187;-85
2022/03/31 09:07:56;;;;;;;4.43;2.07;;;8.50;1.00;;;;;;5075243;28;20194;-85
2022/03/31 09:10:31;;;;;;;3.90;1.90;;;8.60;1.00;;;;;;5075759;28;20237;-87
2022/03/31 09:13:01;;;;;;;3.57;1.80;;;8.80;1.00;;;;;;5073540;28;20188;-85
2022/03/31 09:15:29;;;;;;;2.97;2.00;;;8.70;1.00;;;;;;5074812;28;20214;-84
2022/03/31 09:17:59;;;;;;;8.13;2.40;;;8.80;1.00;;;;;;5062155;28;20193;-84
2022/03/31 09:20:37;;;;;;;2.60;2.07;;;8.80;1.00;;;;;;5064023;28;20227;-86
2022/03/31 09:23:04;;;;;;;3.83;2.10;;;8.70;1.00;;;;;;5073827;28;20196;-85
2022/03/31 09:25:32;;;;;;;3.40;2.27;;;8.80;1.00;;;;;;5068805;28;20192;-86
2022/03/31 09:28:01;;;;;;;5.47;2.67;;;9.20;1.00;;;;;;5054588;28;20655;-84
2022/03/31 09:30:30;;;;;;;5.37;2.40;;;9.40;1.00;;;;;;5054834;28;20235;-84
2022/03/31 09:33:02;;;;;;;4.87;2.23;;;9.40;1.00;;;;;;5052284;28;20202;-86
2022/03/31 09:35:29;;;;;;;3.47;2.37;;;9.20;1.00;;;;;;5052182;28;20229;-86
2022/03/31 09:37:56;;;;;;;3.57;2.33;;;9.00;1.00;;;;;;5053020;28;20263;-86
2022/03/31 09:40:23;;;;;;;2.77;2.10;;;9.10;1.00;;;;;;5055651;28;20680;-85
2022/03/31 09:42:58;;;;;;;9.17;2.53;;;9.00;1.00;;;;;;5055740;28;20181;-85
2022/03/31 09:45:25;;;;;;;3.07;2.40;;;9.00;1.00;;;;;;5076444;28;20203;-85
2022/03/31 09:47:52;;;;;;;3.67;2.13;;;9.10;1.00;;;;;;5067055;28;20199;-85
2022/03/31 09:50:32;;;;;;;7.43;2.40;;;8.80;1.00;;;;;;5054084;28;20211;-86
2022/03/31 09:53:00;;;;;;;2.53;1.80;;;8.50;1.00;;;;;;5060737;28;20181;-86
2022/03/31 09:55:27;;;;;;;3.27;2.20;;;8.40;1.00;;;;;;5060625;28;20203;-84
2022/03/31 09:57:57;;;;;;;2.50;2.07;;;8.30;1.00;;;;;;5057188;28;20656;-84
2022/03/31 10:00:25;;;;;;;3.03;1.97;;;8.10;1.00;;;;;;5075633;28;20224;-84
2022/03/31 10:02:54;;;;;;;4.70;2.50;;;7.90;1.00;;;;;;5078649;28;20235;-88
2022/03/31 10:05:25;;;;;;;3.70;2.23;;;8.10;1.00;;;;;;5081150;28;20203;-86
2022/03/31 10:07:52;;;;;;;4.33;2.47;;;8.10;1.00;;;;;;5081580;28;20640;-85
2022/03/31 10:10:22;;;;;;;3.80;2.20;;;8.20;1.00;;;;;;5070805;28;20664;-86
2022/03/31 10:13:02;;;;;;;3.87;2.80;;;8.30;1.00;;;;;;5076152;28;20201;-87
2022/03/31 10:15:31;;;;;;;3.40;1.63;;;8.10;1.00;;;;;;5067670;28;20204;-86
2022/03/31 10:17:59;;;;;;;2.70;1.87;;;8.10;1.00;;;;;;5070331;28;20538;-85
2022/03/31 10:20:28;;;;;;;5.37;2.43;;;8.00;1.00;;;;;;5075265;28;20233;-86
2022/03/31 10:25:42;;;;;;;2.77;1.80;;;8.20;1.00;;;;;;5076034;28;20310;-84
2022/03/31 10:28:11;;;;;;;3.23;2.20;;;8.20;1.00;;;;;;5079413;28;20209;-88
2022/03/31 10:30:39;;;;;;;2.93;2.27;;;8.30;1.00;;;;;;5074595;28;20205;-86
2022/03/31 10:33:09;;;;;;;3.80;2.47;;;8.30;1.00;;;;;;5075173;28;20199;-86
2022/03/31 10:35:42;;;;;;;2.83;1.90;;;8.20;1.00;;;;;;5079713;28;20561;-88
2022/03/31 10:38:19;;;;;;;4.50;2.30;;;8.10;1.00;;;;;;5075055;28;20211;-85
2022/03/31 10:40:49;;;;;;;5.53;2.57;;;8.00;1.00;;;;;;5071898;28;20545;-86
2022/03/31 10:43:24;;;;;;;6.63;1.97;;;8.10;1.00;;;;;;5075257;28;20197;-88
2022/03/31 10:45:54;;;;;;;3.50;1.80;;;8.10;1.00;;;;;;5076809;28;20188;-86
2022/03/31 10:48:23;;;;;;;2.07;1.70;;;8.10;1.00;;;;;;5059023;28;20206;-86
2022/03/31 10:51:09;;;;;;;5.00;1.23;;;8.00;1.00;;;;;;5074148;28;20191;-85
2022/03/31 10:53:39;;;;;;;3.77;2.10;;;7.90;1.00;;;;;;5073887;28;20178;-85
2022/03/31 10:56:18;;;;;;;4.90;1.83;;;7.90;1.00;;;;;;5062093;28;20677;-85
2022/03/31 10:58:45;;;;;;;3.50;2.40;;;8.10;1.00;;;;;;5053576;28;20546;-84
2022/03/31 11:01:13;;;;;;;4.57;2.17;;;8.20;1.00;;;;;;5061060;28;20213;-84
2022/03/31 11:03:42;;;;;;;3.57;2.23;;;8.20;1.00;;;;;;5072865;28;20676;-87
2022/03/31 11:06:10;;;;;;;3.47;2.27;;;8.10;1.00;;;;;;5075268;28;20287;-87
2022/03/31 11:08:42;;;;;;;4.87;2.00;;;8.10;1.00;;;;;;5071729;28;20285;-87
2022/03/31 11:11:10;;;;;;;7.00;2.50;;;8.10;1.00;;;;;;5075083;28;20242;-88
2022/03/31 11:13:40;;;;;;;3.47;2.13;;;8.30;1.00;;;;;;5056374;28;20204;-88
2022/03/31 11:16:07;;;;;;;3.97;2.20;;;8.30;1.00;;;;;;5055078;28;20196;-86
2022/03/31 11:18:34;;;;;;;4.10;2.33;;;8.30;1.00;;;;;;5076657;28;20190;-87
2022/03/31 11:21:05;;;;;;;3.30;2.33;;;8.20;1.00;;;;;;5083437;28;20276;-88
2022/03/31 11:23:34;;;;;;;5.27;2.33;;;8.30;1.00;;;;;;5079532;28;20248;-87
2022/03/31 11:26:02;;;;;;;5.33;2.40;;;8.30;1.00;;;;;;5082070;28;20201;-84
2022/03/31 11:28:31;;;;;;;3.67;2.00;;;8.30;1.00;;;;;;5079253;28;20201;-86
2022/03/31 11:30:59;;;;;;;3.43;2.00;;;8.50;1.00;;;;;;5076589;28;20620;-85
2022/03/31 11:33:35;;;;;;;4.90;2.57;;;8.30;1.00;;;;;;5076062;28;20204;-85
2022/03/31 11:36:12;;;;;;;5.67;2.30;;;8.20;1.00;;;;;;5080247;28;20252;-87
2022/03/31 11:38:42;;;;;;;5.80;2.37;;;8.10;1.00;;;;;;5082237;28;20250;-84
2022/03/31 11:41:09;;;;;;;11.00;5.30;;;8.30;1.00;;;;;;5081291;28;20298;-83
2022/03/31 11:43:36;;;;;;;4.77;3.30;;;8.30;1.00;;;;;;5080694;28;20199;-85
2022/03/31 11:46:03;;;;;;;4.07;1.70;;;8.30;1.00;;;;;;5074064;28;20202;-85
2022/03/31 11:48:35;;;;;;;2.40;1.87;;;8.40;1.00;;;;;;5062675;28;20203;-86
2022/03/31 11:51:03;;;;;;;6.40;2.60;;;8.40;1.00;;;;;;5060439;28;20605;-87
2022/03/31 11:53:32;;;;;;;6.03;2.33;;;8.40;1.00;;;;;;5075975;28;20184;-85
2022/03/31 11:56:06;;;;;;;3.77;2.27;;;8.50;1.00;;;;;;5072349;28;20211;-88
2022/03/31 11:58:42;;;;;;;6.77;2.20;;;8.50;1.00;;;;;;5082071;28;20263;-88
2022/03/31 12:01:10;;;;;;;9.57;2.30;;;8.50;1.00;;;;;;5078926;28;20209;-85
2022/03/31 12:03:38;;;;;;;5.87;2.40;;;8.60;1.00;;;;;;5057836;28;20199;-84
2022/03/31 12:06:06;;;;;;;3.23;1.67;;;8.60;1.00;;;;;;5055528;28;20191;-84
2022/03/31 12:08:35;;;;;;;5.53;2.10;;;8.50;1.00;;;;;;5056628;28;20278;-85
2022/03/31 12:11:04;;;;;;;4.37;1.73;;;8.50;1.00;;;;;;5058288;28;20578;-86
2022/03/31 12:13:31;;;;;;;8.07;1.87;;;8.60;1.00;;;;;;5057238;28;20207;-86
2022/03/31 12:16:06;;;;;;;4.83;2.43;;;8.70;1.00;;;;;;5058949;28;20249;-85
2022/03/31 12:18:35;;;;;;;6.37;2.30;;;8.70;1.00;;;;;;5056858;28;20197;-85
2022/03/31 12:21:04;;;;;;;3.20;1.80;;;8.70;1.00;;;;;;5062798;28;20211;-85
2022/03/31 12:23:32;;;;;;;5.50;2.07;;;8.60;1.00;;;;;;5075257;28;20274;-85
2022/03/31 12:25:59;;;;;;;3.33;1.93;;;8.60;1.00;;;;;;5077852;28;20193;-86
2022/03/31 12:28:27;;;;;;;3.57;2.10;;;8.50;1.00;;;;;;5076868;28;20194;-85
2022/03/31 12:30:56;;;;;;;5.80;2.67;;;8.50;1.00;;;;;;5077578;28;20217;-86
2022/03/31 12:33:26;;;;;;;2.47;1.70;;;8.60;1.00;;;;;;5075470;28;20189;-85
2022/03/31 12:36:00;;;;;;;4.70;1.87;;;8.70;1.00;;;;;;5074674;28;20652;-84
2022/03/31 12:38:43;;;;;;;3.13;2.40;;;8.70;1.00;;;;;;5073639;28;20214;-85
2022/03/31 12:41:19;;;;;;;6.23;2.47;;;8.70;1.00;;;;;;5077091;28;20701;-86
2022/03/31 12:44:00;;;;;;;6.70;2.23;;;8.70;1.00;;;;;;5074754;28;20236;-86
2022/03/31 12:46:30;;;;;;;5.77;2.20;;;8.60;1.00;;;;;;5074287;28;20195;-84
2022/03/31 12:49:00;;;;;;;4.87;2.20;;;8.60;1.00;;;;;;5072118;28;20189;-83
2022/03/31 12:51:28;;;;;;;4.60;2.17;;;8.70;1.00;;;;;;5073554;28;20651;-83
2022/03/31 12:53:55;;;;;;;3.90;1.77;;;8.70;1.00;;;;;;5065183;28;20189;-85
2022/03/31 12:56:25;;;;;;;6.83;4.23;;;8.50;1.00;;;;;;5053016;28;20206;-84
2022/03/31 12:58:55;;;;;;;4.07;2.67;;;8.50;1.00;;;;;;5053287;28;20214;-87
2022/03/31 13:01:25;;;;;;;8.10;2.50;;;8.70;1.00;;;;;;5065131;28;20217;-82
2022/03/31 13:03:53;;;;;;;4.50;1.90;;;8.80;1.00;;;;;;5058299;28;20191;-83
2022/03/31 13:06:20;;;;;;;3.70;2.20;;;8.80;1.00;;;;;;5055033;28;20228;-81
2022/03/31 13:08:51;;;;;;;13.83;9.37;;;8.80;1.00;;;;;;5057882;28;20197;-86
2022/03/31 13:11:19;;;;;;;4.67;2.60;;;8.80;1.00;;;;;;5055285;28;20319;-82
2022/03/31 13:13:46;;;;;;;2.87;2.10;;;8.60;1.00;;;;;;5054966;28;20196;-81
2022/03/31 13:16:15;;;;;;;4.97;2.40;;;8.60;1.00;;;;;;5057995;28;20582;-83
2022/03/31 13:18:43;;;;;;;4.63;1.77;;;8.60;1.00;;;;;;5080411;28;20192;-83
2022/03/31 13:21:11;;;;;;;3.47;2.10;;;8.50;1.00;;;;;;5075071;28;20226;-81
2022/03/31 13:23:38;;;;;;;5.23;1.97;;;8.50;1.00;;;;;;5079776;28;20576;-81
2022/03/31 13:26:08;;;;;;;3.33;2.07;;;8.30;1.00;;;;;;5076561;28;20203;-83
2022/03/31 13:28:36;;;;;;;5.73;2.30;;;8.40;1.00;;;;;;5076802;28;20283;-82
2022/03/31 13:31:05;;;;;;;3.20;1.90;;;8.30;1.00;;;;;;5081309;28;20383;-86
2022/03/31 13:33:32;;;;;;;3.20;1.80;;;8.20;1.00;;;;;;5079766;28;20351;-83
2022/03/31 13:36:05;;;;;;;2.93;1.70;;;8.20;1.00;;;;;;5083250;28;20297;-85